createdAt,value
2019-03-30T00:01:06.086Z,13.80
2019-03-30T00:03:53.714Z,15.00
2019-03-30T00:06:41.545Z,15.17
2019-03-30T00:09:29.600Z,14.70
2019-03-30T00:12:17.442Z,15.80
2019-03-30T00:15:06.056Z,15.67
2019-03-30T00:17:54.232Z,16.23
2019-03-30T00:20:42.346Z,14.87
2019-03-30T00:23:30.078Z,15.37
2019-03-30T00:26:17.941Z,16.83
2019-03-30T00:29:05.885Z,17.00
2019-03-30T00:31:53.968Z,14.40
2019-03-30T00:34:42.075Z,15.53
2019-03-30T00:37:29.943Z,15.37
2019-03-30T00:40:18.031Z,16.30
2019-03-30T00:43:05.865Z,16.20
2019-03-30T00:45:53.725Z,15.50
2019-03-30T00:48:41.701Z,15.50
2019-03-30T00:51:29.710Z,16.10
2019-03-30T00:54:17.604Z,14.10
2019-03-30T00:57:05.537Z,15.37
2019-03-30T00:59:53.126Z,14.30
2019-03-30T01:02:41.070Z,15.97
2019-03-30T01:05:29.145Z,14.70
2019-03-30T01:08:17.061Z,15.80
2019-03-30T01:11:04.743Z,15.60
2019-03-30T01:13:52.587Z,17.60
2019-03-30T01:16:40.482Z,16.63
2019-03-30T01:19:28.240Z,17.47
2019-03-30T01:22:16.108Z,15.67
2019-03-30T01:25:06.620Z,17.07
2019-03-30T01:27:54.267Z,16.10
2019-03-30T01:30:42.336Z,16.00
2019-03-30T01:33:30.221Z,15.87
2019-03-30T01:36:18.071Z,15.67
2019-03-30T01:39:07.253Z,16.37
2019-03-30T01:41:55.339Z,16.17
2019-03-30T01:44:43.078Z,16.17
2019-03-30T01:47:30.826Z,16.93
2019-03-30T01:50:19.069Z,16.00
2019-03-30T01:53:07.138Z,16.03
2019-03-30T01:55:54.633Z,15.53
2019-03-30T01:58:42.505Z,15.43
2019-03-30T02:01:30.701Z,16.43
2019-03-30T02:04:18.685Z,16.20
2019-03-30T02:07:06.543Z,15.50
2019-03-30T02:09:54.394Z,16.53
2019-03-30T02:12:42.324Z,17.80
2019-03-30T02:15:30.255Z,17.90
2019-03-30T02:18:17.983Z,16.47
2019-03-30T02:21:05.926Z,17.13
2019-03-30T02:23:53.873Z,16.23
2019-03-30T02:26:41.607Z,18.77
2019-03-30T02:29:29.537Z,17.50
2019-03-30T02:32:17.362Z,16.00
2019-03-30T02:35:06.856Z,16.77
2019-03-30T02:37:54.770Z,16.87
2019-03-30T02:40:42.359Z,17.13
2019-03-30T02:43:30.053Z,18.93
2019-03-30T02:46:18.180Z,17.30
2019-03-30T02:49:06.250Z,15.80
2019-03-30T02:51:54.045Z,17.83
2019-03-30T02:54:41.679Z,17.17
2019-03-30T02:57:29.484Z,17.50
2019-03-30T03:00:17.818Z,17.07
2019-03-30T03:03:05.696Z,17.50
2019-03-30T03:05:53.688Z,17.23
2019-03-30T03:08:41.325Z,17.07
2019-03-30T03:11:29.382Z,17.70
2019-03-30T03:14:17.062Z,18.87
2019-03-30T03:17:05.019Z,17.90
2019-03-30T03:19:52.962Z,18.77
2019-03-30T03:22:40.860Z,20.13
2019-03-30T03:25:28.456Z,19.60
2019-03-30T03:28:16.083Z,20.70
2019-03-30T03:31:03.875Z,18.13
2019-03-30T03:33:51.486Z,19.70
2019-03-30T03:36:39.061Z,20.13
2019-03-30T03:39:26.771Z,19.00
2019-03-30T03:42:14.811Z,19.40
2019-03-30T03:45:02.819Z,20.63
2019-03-30T03:47:50.706Z,18.80
2019-03-30T03:50:47.063Z,19.83
2019-03-30T03:53:36.025Z,19.00
2019-03-30T03:56:25.642Z,18.70
2019-03-30T03:59:14.178Z,18.77
2019-03-30T04:02:04.082Z,18.87
2019-03-30T04:04:52.822Z,18.63
2019-03-30T04:07:41.279Z,18.40
2019-03-30T04:10:32.066Z,18.87
2019-03-30T04:13:20.559Z,17.20
2019-03-30T04:16:08.645Z,18.50
2019-03-30T04:18:56.726Z,18.40
2019-03-30T04:21:45.011Z,18.57
2019-03-30T04:24:33.114Z,18.87
2019-03-30T04:27:20.928Z,18.93
2019-03-30T04:30:09.235Z,17.67
2019-03-30T04:32:56.883Z,19.33
2019-03-30T04:35:44.563Z,20.73
2019-03-30T04:38:32.565Z,20.77
2019-03-30T04:41:20.511Z,20.87
2019-03-30T04:44:08.274Z,20.27
2019-03-30T04:46:56.204Z,23.40
2019-03-30T04:49:44.074Z,22.17
2019-03-30T04:52:31.951Z,21.13
2019-03-30T04:55:19.886Z,19.87
2019-03-30T04:58:09.433Z,20.47
2019-03-30T05:00:57.247Z,19.97
2019-03-30T05:03:44.936Z,21.13
2019-03-30T05:06:32.835Z,21.07
2019-03-30T05:09:20.590Z,20.77
2019-03-30T05:12:08.591Z,22.63
2019-03-30T05:14:56.730Z,22.00
2019-03-30T05:17:47.648Z,20.60
2019-03-30T05:20:34.011Z,21.47
2019-03-30T05:23:21.906Z,18.73
2019-03-30T05:26:10.046Z,19.57
2019-03-30T05:28:57.804Z,19.03
2019-03-30T05:31:45.634Z,19.77
2019-03-30T05:34:33.535Z,20.47
2019-03-30T05:37:21.381Z,19.17
2019-03-30T05:40:09.722Z,19.83
2019-03-30T05:42:57.308Z,19.33
2019-03-30T05:45:45.137Z,21.10
2019-03-30T05:48:33.013Z,20.50
2019-03-30T05:51:21.033Z,21.67
2019-03-30T05:54:08.937Z,21.97
2019-03-30T05:56:56.689Z,21.30
2019-03-30T05:59:44.322Z,21.57
2019-03-30T06:02:31.944Z,22.50
2019-03-30T06:05:19.760Z,22.53
2019-03-30T06:08:07.501Z,22.13
2019-03-30T06:10:55.432Z,21.17
2019-03-30T06:13:43.208Z,21.40
2019-03-30T06:16:31.190Z,21.30
2019-03-30T06:19:18.805Z,18.93
2019-03-30T06:22:06.805Z,19.57
2019-03-30T06:24:54.668Z,20.17
2019-03-30T06:27:42.566Z,19.83
2019-03-30T06:30:30.443Z,19.57
2019-03-30T06:33:18.149Z,19.20
2019-03-30T06:36:05.729Z,19.07
2019-03-30T06:38:53.460Z,18.83
2019-03-30T06:41:41.290Z,18.87
2019-03-30T06:44:29.066Z,18.23
2019-03-30T06:47:16.929Z,19.03
2019-03-30T06:50:06.565Z,19.80
2019-03-30T06:52:57.865Z,18.53
2019-03-30T06:55:43.916Z,18.87
2019-03-30T06:58:31.794Z,19.00
2019-03-30T07:01:20.768Z,18.73
2019-03-30T07:04:11.134Z,19.03
2019-03-30T07:06:57.602Z,20.40
2019-03-30T07:09:48.712Z,18.97
2019-03-30T07:12:40.729Z,19.60
2019-03-30T07:15:30.517Z,19.27
2019-03-30T07:18:18.625Z,18.83
2019-03-30T07:21:06.262Z,19.53
2019-03-30T07:23:54.247Z,18.43
2019-03-30T07:26:42.335Z,20.83
2019-03-30T07:29:29.923Z,19.70
2019-03-30T07:32:18.105Z,18.80
2019-03-30T07:35:06.797Z,18.93
2019-03-30T07:37:54.468Z,19.13
2019-03-30T07:40:42.270Z,19.30
2019-03-30T07:43:29.853Z,20.23
2019-03-30T07:46:19.559Z,19.93
2019-03-30T07:49:07.457Z,18.97
2019-03-30T07:51:55.137Z,19.27
2019-03-30T07:54:42.717Z,18.77
2019-03-30T07:57:30.496Z,19.27
2019-03-30T08:00:18.547Z,19.33
2019-03-30T08:03:06.153Z,19.43
2019-03-30T08:05:54.476Z,20.10
2019-03-30T08:08:42.751Z,19.43
2019-03-30T08:11:30.853Z,18.77
2019-03-30T08:14:18.452Z,19.63
2019-03-30T08:17:06.293Z,17.93
2019-03-30T08:19:53.993Z,18.50
2019-03-30T08:22:41.992Z,18.90
2019-03-30T08:25:29.685Z,17.57
2019-03-30T08:28:17.621Z,17.73
2019-03-30T08:31:05.160Z,18.57
2019-03-30T08:33:53.357Z,17.87
2019-03-30T08:36:41.159Z,18.23
2019-03-30T08:39:29.109Z,17.33
2019-03-30T08:42:16.689Z,17.03
2019-03-30T08:45:07.182Z,17.37
2019-03-30T08:47:54.921Z,16.57
2019-03-30T08:50:42.773Z,17.17
2019-03-30T08:53:30.608Z,17.83
2019-03-30T08:56:18.542Z,17.53
2019-03-30T08:59:06.225Z,18.27
2019-03-30T09:01:53.773Z,17.47
2019-03-30T09:04:41.542Z,17.03
2019-03-30T09:07:29.356Z,16.97
2019-03-30T09:10:17.305Z,17.73
2019-03-30T09:13:05.236Z,16.67
2019-03-30T09:15:53.271Z,17.37
2019-03-30T09:18:41.231Z,17.47
2019-03-30T09:21:28.987Z,15.87
2019-03-30T09:24:16.880Z,15.33
2019-03-30T09:27:04.775Z,15.73
2019-03-30T09:29:52.460Z,17.63
2019-03-30T09:32:40.063Z,16.37
2019-03-30T09:35:27.864Z,18.20
2019-03-30T09:38:15.777Z,17.60
2019-03-30T09:41:03.850Z,18.23
2019-03-30T09:43:51.633Z,18.03
2019-03-30T09:46:39.205Z,17.70
2019-03-30T09:49:26.880Z,18.63
2019-03-30T09:52:14.676Z,17.77
2019-03-30T09:55:03.124Z,18.07
2019-03-30T09:57:51.077Z,16.70
2019-03-30T10:00:38.746Z,16.50
2019-03-30T10:03:26.464Z,15.97
2019-03-30T10:06:14.094Z,16.43
2019-03-30T10:09:01.823Z,16.37
2019-03-30T10:11:49.585Z,15.37
2019-03-30T10:14:37.309Z,16.07
2019-03-30T10:17:25.021Z,16.47
2019-03-30T10:20:13.169Z,15.83
2019-03-30T10:23:00.977Z,14.90
2019-03-30T10:25:48.928Z,13.93
2019-03-30T10:28:36.624Z,16.13
2019-03-30T10:31:24.369Z,16.27
2019-03-30T10:34:12.094Z,14.70
2019-03-30T10:36:59.772Z,14.53
2019-03-30T10:39:47.332Z,14.60
2019-03-30T10:42:35.144Z,15.20
2019-03-30T10:45:23.229Z,13.97
2019-03-30T10:48:11.076Z,13.67
2019-03-30T10:50:58.601Z,14.73
2019-03-30T10:53:46.381Z,14.80
2019-03-30T10:56:34.588Z,14.00
2019-03-30T10:59:22.578Z,13.30
2019-03-30T11:02:10.474Z,14.67
2019-03-30T11:04:58.225Z,14.57
2019-03-30T11:07:46.426Z,13.37
2019-03-30T11:10:34.280Z,14.33
2019-03-30T11:13:21.962Z,14.27
2019-03-30T11:16:09.981Z,14.10
2019-03-30T11:18:57.960Z,14.07
2019-03-30T11:21:45.789Z,13.83
2019-03-30T11:24:33.413Z,13.33
2019-03-30T11:27:21.492Z,13.57
2019-03-30T11:30:10.394Z,13.23
2019-03-30T11:32:58.081Z,12.70
2019-03-30T11:35:45.857Z,12.20
2019-03-30T11:38:33.833Z,12.53
2019-03-30T11:41:24.809Z,12.00
2019-03-30T11:44:10.870Z,11.40
2019-03-30T11:46:58.575Z,11.23
2019-03-30T11:49:46.399Z,9.07
2019-03-30T11:52:34.288Z,9.57
2019-03-30T11:55:22.610Z,9.13
2019-03-30T11:58:10.861Z,10.40
2019-03-30T12:00:58.565Z,9.10
2019-03-30T12:03:46.582Z,9.93
2019-03-30T12:06:34.213Z,9.70
2019-03-30T12:09:22.086Z,9.67
2019-03-30T12:12:09.733Z,7.60
2019-03-30T12:14:57.718Z,7.00
2019-03-30T12:17:45.421Z,6.60
2019-03-30T12:20:33.310Z,9.87
2019-03-30T12:23:20.997Z,9.70
2019-03-30T12:26:08.935Z,10.97
2019-03-30T12:28:56.785Z,10.23
2019-03-30T12:31:44.341Z,9.33
2019-03-30T12:34:32.247Z,8.47
2019-03-30T12:37:20.207Z,9.77
2019-03-30T12:40:08.295Z,9.03
2019-03-30T12:42:55.917Z,9.47
2019-03-30T12:45:43.820Z,9.37
2019-03-30T12:48:31.853Z,8.27
2019-03-30T12:51:19.769Z,9.67
2019-03-30T12:54:07.737Z,14.07
2019-03-30T12:56:55.315Z,9.07
2019-03-30T12:59:43.428Z,8.67
2019-03-30T13:02:30.929Z,8.70
2019-03-30T13:05:18.576Z,9.20
2019-03-30T13:08:06.443Z,8.93
2019-03-30T13:10:54.349Z,9.23
2019-03-30T13:13:42.121Z,8.70
2019-03-30T13:16:30.138Z,8.83
2019-03-30T13:19:18.006Z,7.77
2019-03-30T13:22:05.754Z,8.67
2019-03-30T13:24:53.334Z,8.97
2019-03-30T13:27:41.040Z,9.10
2019-03-30T13:30:29.204Z,8.30
2019-03-30T13:33:16.745Z,8.57
2019-03-30T13:36:04.766Z,8.40
2019-03-30T13:38:52.834Z,7.47
2019-03-30T13:41:40.998Z,8.60
2019-03-30T13:44:28.633Z,7.83
2019-03-30T13:47:16.511Z,7.93
2019-03-30T13:50:05.777Z,7.00
2019-03-30T13:52:53.768Z,8.20
2019-03-30T13:55:41.310Z,8.40
2019-03-30T13:58:28.761Z,8.23
2019-03-30T14:01:16.594Z,8.47
2019-03-30T14:04:04.685Z,7.17
2019-03-30T14:06:52.510Z,7.53
2019-03-30T14:09:40.354Z,7.90
2019-03-30T14:12:28.237Z,7.10
2019-03-30T14:15:16.037Z,6.83
2019-03-30T14:18:03.897Z,6.93
2019-03-30T14:20:51.754Z,7.03
2019-03-30T14:23:39.309Z,6.77
2019-03-30T14:26:31.636Z,7.10
2019-03-30T14:29:16.945Z,6.63
2019-03-30T14:32:04.880Z,6.57
2019-03-30T14:34:52.904Z,6.43
2019-03-30T14:37:40.891Z,6.87
2019-03-30T14:40:28.686Z,7.50
2019-03-30T14:43:16.547Z,7.10
2019-03-30T14:46:04.249Z,6.60
2019-03-30T14:48:52.092Z,7.30
2019-03-30T14:51:39.953Z,6.57
2019-03-30T14:54:27.891Z,6.87
2019-03-30T14:57:15.762Z,7.90
2019-03-30T15:00:05.613Z,6.53
2019-03-30T15:02:53.599Z,6.87
2019-03-30T15:05:41.442Z,7.30
2019-03-30T15:08:29.337Z,6.10
2019-03-30T15:11:17.270Z,7.40
2019-03-30T15:14:05.183Z,7.13
2019-03-30T15:16:53.015Z,6.43
2019-03-30T15:19:40.749Z,6.13
2019-03-30T15:22:28.425Z,7.00
2019-03-30T15:25:16.499Z,6.43
2019-03-30T15:28:04.478Z,6.80
2019-03-30T15:30:52.242Z,6.83
2019-03-30T15:33:40.253Z,7.17
2019-03-30T15:36:28.113Z,6.50
2019-03-30T15:39:18.765Z,6.20
2019-03-30T15:42:06.576Z,6.60
2019-03-30T15:44:54.565Z,6.70
2019-03-30T15:47:42.675Z,6.70
2019-03-30T15:50:30.536Z,6.97
2019-03-30T15:53:18.383Z,6.47
2019-03-30T15:56:06.221Z,5.67
2019-03-30T15:58:54.186Z,5.80
2019-03-30T16:01:41.789Z,5.80
2019-03-30T16:04:29.777Z,6.47
2019-03-30T16:07:17.649Z,6.20
2019-03-30T16:10:06.757Z,6.67
2019-03-30T16:12:54.405Z,5.87
2019-03-30T16:15:44.527Z,6.30
2019-03-30T16:18:32.130Z,6.33
2019-03-30T16:21:20.062Z,6.30
2019-03-30T16:24:07.730Z,5.90
2019-03-30T16:26:55.427Z,5.80
2019-03-30T16:29:43.300Z,5.50
2019-03-30T16:32:31.221Z,5.63
2019-03-30T16:35:18.954Z,5.37
2019-03-30T16:38:06.618Z,5.73
2019-03-30T16:40:54.593Z,6.00
2019-03-30T16:43:42.778Z,5.73
2019-03-30T16:46:30.481Z,6.40
2019-03-30T16:49:18.282Z,5.73
2019-03-30T16:52:06.300Z,5.77
2019-03-30T16:54:54.369Z,5.20
2019-03-30T16:57:43.958Z,5.50
2019-03-30T17:00:33.336Z,5.07
2019-03-30T17:03:21.001Z,5.37
2019-03-30T17:06:08.706Z,5.53
2019-03-30T17:08:56.845Z,5.50
2019-03-30T17:11:44.776Z,4.83
2019-03-30T17:14:32.770Z,4.97
2019-03-30T17:17:20.733Z,4.73
2019-03-30T17:20:08.793Z,4.57
2019-03-30T17:22:58.799Z,5.43
2019-03-30T17:25:46.346Z,10.73
2019-03-30T17:28:34.417Z,11.17
2019-03-30T17:31:22.291Z,10.70
2019-03-30T17:34:10.142Z,10.47
2019-03-30T17:36:57.753Z,10.03
2019-03-30T17:39:45.481Z,10.83
2019-03-30T17:42:33.718Z,9.60
2019-03-30T17:45:21.426Z,9.23
2019-03-30T17:48:08.975Z,10.27
2019-03-30T17:50:58.365Z,9.37
2019-03-30T17:53:46.470Z,9.77
2019-03-30T17:56:34.434Z,9.67
2019-03-30T17:59:23.840Z,8.73
2019-03-30T18:02:11.497Z,9.03
2019-03-30T18:04:59.240Z,9.73
2019-03-30T18:07:47.017Z,9.57
2019-03-30T18:10:34.813Z,9.07
2019-03-30T18:13:22.646Z,10.30
2019-03-30T18:16:10.573Z,10.80
2019-03-30T18:18:58.576Z,9.73
2019-03-30T18:21:46.368Z,10.17
2019-03-30T18:24:34.384Z,10.17
2019-03-30T18:27:22.300Z,11.03
2019-03-30T18:30:10.703Z,10.13
2019-03-30T18:32:58.605Z,9.93
2019-03-30T18:35:46.773Z,11.50
2019-03-30T18:38:36.794Z,10.37
2019-03-30T18:41:25.001Z,12.33
2019-03-30T18:44:12.977Z,11.73
2019-03-30T18:47:00.681Z,12.47
2019-03-30T18:49:48.540Z,12.10
2019-03-30T18:52:37.109Z,13.27
2019-03-30T18:55:24.818Z,13.10
2019-03-30T18:58:12.644Z,12.77
2019-03-30T19:01:00.334Z,13.57
2019-03-30T19:03:48.418Z,13.53
2019-03-30T19:06:36.120Z,14.40
2019-03-30T19:09:24.077Z,15.23
2019-03-30T19:12:11.757Z,17.27
2019-03-30T19:14:59.890Z,17.27
2019-03-30T19:17:47.712Z,24.03
2019-03-30T19:20:35.380Z,22.57
2019-03-30T19:23:22.945Z,24.57
2019-03-30T19:26:10.879Z,21.83
2019-03-30T19:28:58.701Z,17.40
2019-03-30T19:31:46.573Z,14.87
2019-03-30T19:34:34.601Z,13.63
2019-03-30T19:37:22.650Z,12.70
2019-03-30T19:40:10.866Z,12.50
2019-03-30T19:42:58.513Z,12.43
2019-03-30T19:45:46.459Z,11.87
2019-03-30T19:48:36.927Z,12.30
2019-03-30T19:51:24.742Z,11.83
2019-03-30T19:54:12.413Z,12.07
2019-03-30T19:57:00.128Z,12.17
2019-03-30T19:59:47.815Z,12.00
2019-03-30T20:02:35.546Z,13.20
2019-03-30T20:05:23.241Z,11.93
2019-03-30T20:08:12.391Z,10.83
2019-03-30T20:11:00.830Z,11.07
2019-03-30T20:13:48.600Z,10.80
2019-03-30T20:16:36.485Z,10.97
2019-03-30T20:19:24.057Z,11.23
2019-03-30T20:22:11.785Z,11.40
2019-03-30T20:24:59.532Z,10.87
2019-03-30T20:27:47.275Z,11.40
2019-03-30T20:30:34.973Z,11.70
2019-03-30T20:33:22.952Z,10.83
2019-03-30T20:36:10.578Z,11.20
2019-03-30T20:38:58.574Z,10.50
2019-03-30T20:41:46.561Z,10.80
2019-03-30T20:44:34.577Z,16.17
2019-03-30T20:47:22.360Z,13.97
2019-03-30T20:50:10.549Z,13.00
2019-03-30T20:52:58.285Z,13.97
2019-03-30T20:55:46.488Z,13.37
2019-03-30T20:58:34.397Z,11.90
2019-03-30T21:01:22.122Z,11.90
2019-03-30T21:04:10.035Z,11.33
2019-03-30T21:06:57.905Z,12.37
2019-03-30T21:09:45.851Z,11.90
2019-03-30T21:12:33.777Z,11.97
2019-03-30T21:15:21.481Z,11.50
2019-03-30T21:18:09.322Z,11.73
2019-03-30T21:20:57.189Z,12.27
2019-03-30T21:23:45.025Z,11.93
2019-03-30T21:26:33.005Z,12.70
2019-03-30T21:29:20.834Z,11.90
2019-03-30T21:32:08.489Z,12.23
2019-03-30T21:34:56.394Z,12.80
2019-03-30T21:37:43.972Z,11.00
2019-03-30T21:40:31.777Z,13.70
2019-03-30T21:43:19.760Z,12.70
2019-03-30T21:46:07.618Z,12.40
2019-03-30T21:48:55.271Z,12.07
2019-03-30T21:51:42.913Z,12.17
2019-03-30T21:54:30.803Z,13.67
2019-03-30T21:57:18.526Z,12.60
2019-03-30T22:00:10.404Z,12.97
2019-03-30T22:02:57.868Z,13.87
2019-03-30T22:05:45.765Z,13.60
2019-03-30T22:08:33.620Z,13.20
2019-03-30T22:11:21.381Z,13.40
2019-03-30T22:14:09.614Z,11.73
2019-03-30T22:16:57.461Z,12.37
2019-03-30T22:19:45.393Z,12.07
2019-03-30T22:22:33.142Z,12.43
2019-03-30T22:25:21.061Z,13.00
2019-03-30T22:28:08.993Z,12.60
2019-03-30T22:30:56.893Z,12.60
2019-03-30T22:33:44.721Z,12.63
2019-03-30T22:36:32.525Z,12.40
2019-03-30T22:39:20.434Z,12.53
2019-03-30T22:42:08.137Z,12.57
2019-03-30T22:44:55.940Z,13.07
2019-03-30T22:47:43.866Z,12.33
2019-03-30T22:50:31.781Z,13.60
2019-03-30T22:53:19.485Z,13.40
2019-03-30T22:56:07.317Z,13.30
2019-03-30T22:58:55.121Z,12.50
2019-03-30T23:01:43.117Z,13.27
2019-03-30T23:04:30.728Z,12.73
2019-03-30T23:07:18.637Z,12.97
2019-03-30T23:10:07.376Z,13.17
2019-03-30T23:12:54.970Z,13.13
2019-03-30T23:15:42.904Z,13.13
2019-03-30T23:18:30.885Z,12.33
2019-03-30T23:21:18.737Z,12.73
2019-03-30T23:24:06.570Z,12.80
2019-03-30T23:26:54.221Z,13.73
2019-03-30T23:29:41.968Z,12.27
2019-03-30T23:32:29.997Z,13.03
2019-03-30T23:35:17.888Z,12.57
2019-03-30T23:38:05.557Z,13.17
2019-03-30T23:40:53.603Z,13.33
2019-03-30T23:43:41.225Z,12.80
2019-03-30T23:46:28.968Z,12.07
2019-03-30T23:49:16.898Z,12.90
2019-03-30T23:52:04.554Z,14.87
2019-03-30T23:54:52.176Z,12.97
2019-03-30T23:57:40.373Z,12.03
